createdAt,value
2023-04-03T00:00:17.366Z,5.05
2023-04-03T00:03:04.620Z,4.78
2023-04-03T00:05:52.091Z,4.85
2023-04-03T00:08:40.352Z,4.70
2023-04-03T00:11:28.258Z,4.93
2023-04-03T00:14:16.207Z,5.25
2023-04-03T00:17:06.638Z,4.82
2023-04-03T00:19:53.921Z,5.50
2023-04-03T00:22:41.071Z,5.00
2023-04-03T00:25:28.493Z,5.22
2023-04-03T00:28:15.643Z,5.03
2023-04-03T00:31:11.615Z,5.60
2023-04-03T00:34:02.017Z,5.45
2023-04-03T00:36:52.590Z,5.15
2023-04-03T00:39:40.415Z,5.40
2023-04-03T00:42:27.525Z,5.22
2023-04-03T00:45:47.344Z,5.53
2023-04-03T00:48:44.141Z,5.18
2023-04-03T00:51:31.382Z,5.68
2023-04-03T00:54:18.734Z,5.43
2023-04-03T00:57:07.830Z,5.35
2023-04-03T01:00:00.888Z,5.30
2023-04-03T01:02:50.598Z,5.18
2023-04-03T01:05:39.292Z,5.38
2023-04-03T01:08:26.682Z,4.80
2023-04-03T01:11:13.993Z,5.70
2023-04-03T01:14:03.872Z,5.32
2023-04-03T01:16:55.789Z,5.40
2023-04-03T01:19:48.530Z,4.07
2023-04-03T01:25:31.148Z,4.90
2023-04-03T01:28:32.630Z,4.70
2023-04-03T01:31:38.568Z,5.05
2023-04-03T01:34:29.140Z,5.00
2023-04-03T01:37:16.421Z,5.40
2023-04-03T01:40:04.566Z,5.28
2023-04-03T01:42:51.779Z,5.55
2023-04-03T01:45:38.964Z,5.03
2023-04-03T01:48:28.658Z,5.13
2023-04-03T01:51:16.320Z,5.85
2023-04-03T01:54:03.909Z,5.55
2023-04-03T01:56:51.728Z,5.57
2023-04-03T01:59:39.174Z,5.40
2023-04-03T02:02:26.629Z,5.50
2023-04-03T02:05:13.748Z,5.28
2023-04-03T02:08:01.522Z,5.25
2023-04-03T02:10:49.811Z,4.85
2023-04-03T02:13:36.995Z,5.38
2023-04-03T02:16:24.197Z,5.45
2023-04-03T02:19:11.561Z,5.68
2023-04-03T02:22:01.357Z,5.30
2023-04-03T02:24:48.594Z,5.68
2023-04-03T02:27:36.634Z,6.28
2023-04-03T02:30:23.837Z,5.28
2023-04-03T02:33:13.473Z,5.03
2023-04-03T02:36:08.770Z,5.32
2023-04-03T02:38:55.921Z,5.38
2023-04-03T02:41:43.331Z,5.95
2023-04-03T02:44:30.707Z,4.93
2023-04-03T02:47:17.908Z,5.43
2023-04-03T02:50:05.562Z,5.32
2023-04-03T02:52:56.278Z,5.20
2023-04-03T02:55:45.824Z,5.68
2023-04-03T02:58:34.159Z,5.25
2023-04-03T03:01:21.555Z,5.45
2023-04-03T03:04:08.742Z,4.88
2023-04-03T03:06:56.051Z,5.45
2023-04-03T03:09:43.203Z,5.40
2023-04-03T03:12:33.779Z,5.55
2023-04-03T03:15:21.146Z,5.20
2023-04-03T03:18:10.824Z,4.57
2023-04-03T03:21:10.222Z,4.80
2023-04-03T03:24:00.716Z,4.82
2023-04-03T03:26:47.948Z,4.88
2023-04-03T03:29:35.296Z,5.38
2023-04-03T03:32:22.650Z,4.88
2023-04-03T03:35:10.063Z,5.05
2023-04-03T03:37:57.223Z,4.50
2023-04-03T03:40:46.092Z,4.88
2023-04-03T03:43:33.493Z,4.88
2023-04-03T03:46:23.247Z,5.35
2023-04-03T03:49:10.542Z,4.70
2023-04-03T03:51:57.626Z,4.50
2023-04-03T03:54:47.003Z,4.97
2023-04-03T03:57:34.251Z,4.65
2023-04-03T04:00:21.619Z,5.05
2023-04-03T04:03:08.767Z,4.97
2023-04-03T04:05:56.104Z,4.55
2023-04-03T04:08:43.894Z,4.68
2023-04-03T04:11:40.790Z,4.32
2023-04-03T04:14:28.020Z,4.72
2023-04-03T04:17:15.765Z,4.35
2023-04-03T04:20:06.145Z,4.85
2023-04-03T04:22:53.809Z,5.25
2023-04-03T04:25:41.392Z,4.30
2023-04-03T04:28:28.634Z,4.93
2023-04-03T04:31:18.164Z,5.45
2023-04-03T04:34:05.572Z,5.50
2023-04-03T04:36:53.206Z,4.15
2023-04-03T04:39:45.318Z,5.70
2023-04-03T04:42:32.575Z,5.18
2023-04-03T04:45:19.897Z,4.45
2023-04-03T04:48:07.155Z,4.78
2023-04-03T04:50:54.288Z,4.80
2023-04-03T04:53:41.716Z,5.15
2023-04-03T04:56:32.209Z,5.22
2023-04-03T04:59:21.936Z,4.80
2023-04-03T05:02:11.636Z,4.50
2023-04-03T05:04:58.900Z,4.63
2023-04-03T05:07:48.530Z,4.50
2023-04-03T05:10:37.986Z,5.03
2023-04-03T05:13:25.185Z,4.45
2023-04-03T05:16:12.554Z,4.53
2023-04-03T05:19:02.058Z,4.53
2023-04-03T05:21:50.247Z,4.18
2023-04-03T05:24:39.798Z,4.72
2023-04-03T05:27:29.174Z,4.50
2023-04-03T05:30:17.980Z,3.78
2023-04-03T05:33:05.276Z,4.18
2023-04-03T05:35:52.548Z,4.00
2023-04-03T05:38:40.588Z,4.03
2023-04-03T05:41:28.258Z,3.58
2023-04-03T05:44:17.977Z,3.47
2023-04-03T05:47:06.141Z,3.75
2023-04-03T05:49:53.439Z,3.83
2023-04-03T05:52:48.169Z,3.97
2023-04-03T05:55:41.252Z,3.30
2023-04-03T05:58:42.021Z,3.08
2023-04-03T07:07:01.148Z,3.65
2023-04-03T07:15:12.072Z,3.40
2023-04-03T07:22:20.665Z,3.03
2023-04-03T07:25:28.698Z,3.20
2023-04-03T07:57:36.156Z,2.92
2023-04-03T08:00:32.709Z,3.08
2023-04-03T08:03:22.663Z,2.80
2023-04-03T08:14:13.233Z,2.90
2023-04-03T08:17:10.037Z,3.50
2023-04-03T08:23:24.835Z,3.20
2023-04-03T08:31:45.169Z,3.03
2023-04-03T08:38:20.128Z,3.67
2023-04-03T08:49:11.345Z,3.60
2023-04-03T08:55:34.279Z,3.33
2023-04-03T09:02:15.971Z,3.33
2023-04-03T09:05:19.278Z,3.35
2023-04-03T09:08:32.989Z,3.00
2023-04-03T09:11:49.619Z,3.45
2023-04-03T09:15:03.543Z,3.22
2023-04-03T09:18:12.638Z,3.10
2023-04-03T09:21:22.133Z,2.70
2023-04-03T09:24:16.167Z,3.30
2023-04-03T09:27:28.323Z,3.03
2023-04-03T09:30:22.903Z,2.80
2023-04-03T09:33:21.823Z,3.30
2023-04-03T09:36:12.367Z,3.42
2023-04-03T09:39:21.773Z,2.72
2023-04-03T09:42:55.530Z,3.25
2023-04-03T09:46:10.149Z,3.05
2023-04-03T09:49:43.360Z,2.75
2023-04-03T10:00:42.312Z,3.10
2023-04-03T10:04:26.479Z,3.08
2023-04-03T10:24:04.955Z,2.78
2023-04-03T10:48:06.512Z,2.67
2023-04-03T10:54:52.515Z,2.33
2023-04-03T10:58:15.719Z,2.88
2023-04-03T11:04:45.363Z,5.57
2023-04-03T11:08:18.452Z,2.80
2023-04-03T11:11:15.908Z,2.50
2023-04-03T11:14:46.162Z,2.53
2023-04-03T11:18:13.821Z,2.22
2023-04-03T11:22:02.327Z,2.58
2023-04-03T11:25:32.425Z,3.00
2023-04-03T11:28:42.430Z,2.63
2023-04-03T11:31:42.520Z,2.88
2023-04-03T11:34:56.927Z,2.75
2023-04-03T11:38:05.592Z,2.63
2023-04-03T11:41:31.288Z,2.95
2023-04-03T11:45:19.732Z,2.60
2023-04-03T12:06:37.452Z,10.52
2023-04-03T12:23:11.115Z,2.47
2023-04-03T12:25:59.897Z,2.65
2023-04-03T12:29:24.390Z,2.80
2023-04-03T12:36:26.743Z,2.50
2023-04-03T12:40:19.818Z,2.72
2023-04-03T12:43:49.590Z,2.60
2023-04-03T12:46:45.823Z,2.85
2023-04-03T12:49:57.026Z,2.45
2023-04-03T12:53:30.231Z,2.80
2023-04-03T12:56:32.020Z,2.65
2023-04-03T13:02:36.082Z,2.38
2023-04-03T13:06:52.110Z,2.90
2023-04-03T13:13:27.621Z,2.58
2023-04-03T13:18:01.661Z,2.30
2023-04-03T13:28:33.335Z,2.63
2023-04-03T13:34:05.745Z,4.18
2023-04-03T13:52:21.349Z,2.30
2023-04-03T14:13:33.746Z,2.35
2023-04-03T14:41:31.517Z,2.17
2023-04-03T14:44:50.451Z,2.67
2023-04-03T14:55:11.452Z,2.75
2023-04-03T14:58:01.499Z,2.63
2023-04-03T15:00:48.870Z,2.83
2023-04-03T15:03:36.282Z,2.47
2023-04-03T15:07:32.534Z,2.80
2023-04-03T15:10:39.264Z,2.60
2023-04-03T15:13:36.204Z,2.08
2023-04-03T15:16:25.201Z,2.38
2023-04-03T15:19:27.891Z,2.58
2023-04-03T15:22:23.359Z,2.30
2023-04-03T15:25:14.087Z,2.58
2023-04-03T15:28:01.676Z,2.20
2023-04-03T15:30:49.451Z,2.38
2023-04-03T15:33:37.750Z,3.67
2023-04-03T15:36:34.293Z,2.75
2023-04-03T15:39:31.584Z,2.47
2023-04-03T15:42:18.999Z,2.50
2023-04-03T15:45:10.171Z,2.45
2023-04-03T15:47:58.289Z,2.70
2023-04-03T15:50:49.372Z,2.60
2023-04-03T15:53:36.699Z,2.75
2023-04-03T15:56:25.349Z,2.72
2023-04-03T15:59:13.498Z,2.72
2023-04-03T16:02:02.714Z,2.35
2023-04-03T16:04:50.668Z,2.70
2023-04-03T16:07:44.478Z,2.97
2023-04-03T16:10:34.698Z,3.42
2023-04-03T16:13:22.305Z,2.53
2023-04-03T16:16:12.402Z,2.25
2023-04-03T16:18:59.795Z,2.60
2023-04-03T16:21:49.656Z,2.42
2023-04-03T16:24:37.480Z,2.90
2023-04-03T16:27:29.005Z,2.65
2023-04-03T16:30:16.483Z,2.58
2023-04-03T16:33:04.498Z,2.15
2023-04-03T16:35:53.204Z,2.50
2023-04-03T16:38:46.905Z,3.03
2023-04-03T16:41:34.275Z,2.38
2023-04-03T16:44:24.400Z,2.40
2023-04-03T16:47:12.202Z,2.50
2023-04-03T16:49:59.971Z,2.70
2023-04-03T16:52:48.117Z,3.05
2023-04-03T16:55:36.804Z,3.65
2023-04-03T16:58:24.215Z,2.67
2023-04-03T17:01:15.059Z,2.33
2023-04-03T17:04:02.477Z,3.17
2023-04-03T17:06:50.228Z,3.45
2023-04-03T17:09:38.409Z,5.00
2023-04-03T17:12:28.914Z,4.38
2023-04-03T17:15:16.414Z,3.72
2023-04-03T17:18:04.264Z,2.85
2023-04-03T17:20:53.860Z,3.08
2023-04-03T17:24:10.890Z,3.95
2023-04-03T17:27:00.758Z,3.28
2023-04-03T17:29:51.585Z,2.40
2023-04-03T17:32:57.426Z,2.42
2023-04-03T17:35:48.017Z,2.58
2023-04-03T17:44:16.749Z,2.45
2023-04-03T17:47:04.460Z,2.72
2023-04-03T17:49:54.543Z,2.90
2023-04-03T17:52:43.451Z,2.78
2023-04-03T17:55:31.433Z,2.90
2023-04-03T17:58:18.929Z,2.70
2023-04-03T18:01:18.351Z,2.50
2023-04-03T18:04:06.896Z,3.00
2023-04-03T18:06:56.057Z,3.30
2023-04-03T18:09:43.730Z,2.75
2023-04-03T18:12:39.845Z,2.53
2023-04-03T18:15:31.457Z,3.00
2023-04-03T18:18:18.949Z,3.00
2023-04-03T18:21:08.779Z,3.30
2023-04-03T18:23:57.108Z,3.70
2023-04-03T18:26:48.468Z,2.45
2023-04-03T18:29:38.618Z,3.67
2023-04-03T18:32:26.356Z,3.22
2023-04-03T18:35:17.025Z,2.83
2023-04-03T18:38:04.870Z,2.60
2023-04-03T18:40:53.494Z,3.33
2023-04-03T18:43:41.353Z,3.70
2023-04-03T18:46:28.900Z,3.35
2023-04-03T18:49:18.434Z,2.70
2023-04-03T18:52:08.374Z,3.08
2023-04-03T18:54:58.377Z,2.85
2023-04-03T18:57:49.025Z,3.15
2023-04-03T19:00:38.532Z,2.83
2023-04-03T19:03:28.869Z,3.35
2023-04-03T19:06:16.478Z,2.95
2023-04-03T19:09:06.783Z,3.35
2023-04-03T19:11:54.795Z,3.05
2023-04-03T19:14:49.702Z,3.45
2023-04-03T19:17:37.123Z,2.92
2023-04-03T19:20:24.980Z,3.08
2023-04-03T19:23:14.857Z,3.13
2023-04-03T19:26:05.869Z,3.08
2023-04-03T19:28:53.466Z,2.97
2023-04-03T19:31:41.148Z,2.90
2023-04-03T19:34:28.690Z,3.00
2023-04-03T19:37:18.234Z,3.47
2023-04-03T19:40:06.303Z,3.13
2023-04-03T19:42:55.049Z,3.10
2023-04-03T19:45:44.143Z,3.20
2023-04-03T19:48:32.316Z,3.08
2023-04-03T19:51:20.250Z,3.30
2023-04-03T19:54:16.284Z,2.95
2023-04-03T19:57:06.554Z,3.08
2023-04-03T19:59:54.929Z,2.88
2023-04-03T20:02:42.366Z,3.70
2023-04-03T20:05:41.737Z,3.75
2023-04-03T20:08:30.577Z,3.88
2023-04-03T20:11:28.530Z,3.00
2023-04-03T20:14:17.860Z,3.50
2023-04-03T20:17:05.775Z,3.38
2023-04-03T20:19:54.068Z,3.42
2023-04-03T20:22:41.828Z,3.78
2023-04-03T20:25:47.900Z,3.03
2023-04-03T20:28:38.498Z,3.53
2023-04-03T20:31:35.379Z,3.47
2023-04-03T20:34:22.887Z,3.20
2023-04-03T20:37:11.069Z,3.42
2023-04-03T20:40:01.410Z,2.50
2023-04-03T20:42:48.987Z,3.72
2023-04-03T20:45:36.323Z,2.92
2023-04-03T20:48:23.787Z,3.45
2023-04-03T20:51:17.095Z,3.70
2023-04-03T20:54:07.044Z,3.40
2023-04-03T20:57:02.605Z,3.40
2023-04-03T20:59:53.301Z,3.30
2023-04-03T21:02:41.780Z,3.17
2023-04-03T21:05:30.521Z,2.88
2023-04-03T21:09:01.357Z,4.10
2023-04-03T21:12:26.509Z,4.03
2023-04-03T21:15:49.175Z,3.08
2023-04-03T21:18:57.478Z,3.40
2023-04-03T21:21:45.892Z,3.22
2023-04-03T21:24:33.500Z,4.00
2023-04-03T21:27:20.918Z,3.42
2023-04-03T21:30:09.045Z,3.20
2023-04-03T21:32:56.664Z,4.28
2023-04-03T21:35:48.503Z,3.17
2023-04-03T21:38:36.250Z,3.13
2023-04-03T21:41:30.597Z,2.67
2023-04-03T21:44:22.350Z,3.25
2023-04-03T21:47:10.010Z,3.03
2023-04-03T21:49:57.624Z,3.47
2023-04-03T21:52:45.135Z,3.55
2023-04-03T21:55:32.761Z,2.83
2023-04-03T21:58:20.508Z,3.10
2023-04-03T22:01:15.336Z,2.45
2023-04-03T22:04:08.391Z,3.53
2023-04-03T22:06:58.260Z,2.65
2023-04-03T22:09:50.621Z,2.70
2023-04-03T22:12:47.718Z,3.20
2023-04-03T22:15:47.672Z,2.70
2023-04-03T22:18:35.925Z,3.20
2023-04-03T22:21:28.039Z,2.55
2023-04-03T22:24:18.655Z,2.47
2023-04-03T22:27:06.614Z,2.75
2023-04-03T22:29:56.852Z,2.85
2023-04-03T22:32:44.678Z,2.78
2023-04-03T22:35:32.543Z,2.63
2023-04-03T22:38:20.306Z,2.95
2023-04-03T22:41:08.444Z,3.25
2023-04-03T22:44:09.967Z,2.78
2023-04-03T22:46:57.741Z,3.25
2023-04-03T22:49:47.382Z,2.90
2023-04-03T22:52:34.818Z,3.40
2023-04-03T22:55:28.348Z,2.80
2023-04-03T22:58:15.874Z,3.38
2023-04-03T23:01:11.267Z,3.08
2023-04-03T23:04:01.509Z,3.03
2023-04-03T23:06:49.083Z,3.08
2023-04-03T23:09:36.597Z,3.08
2023-04-03T23:12:24.289Z,3.55
2023-04-03T23:15:11.633Z,3.08
2023-04-03T23:17:58.935Z,3.65
2023-04-03T23:20:46.903Z,2.90
2023-04-03T23:23:35.703Z,3.30
2023-04-03T23:26:24.172Z,3.22
2023-04-03T23:29:11.595Z,3.40
2023-04-03T23:31:58.895Z,3.20
2023-04-03T23:34:46.131Z,3.10
2023-04-03T23:37:33.596Z,3.92
2023-04-03T23:40:20.923Z,3.50
2023-04-03T23:43:14.070Z,3.47
2023-04-03T23:46:01.437Z,3.33
2023-04-03T23:48:48.784Z,3.42
2023-04-03T23:51:44.881Z,3.60
2023-04-03T23:54:32.190Z,3.40
2023-04-03T23:57:22.343Z,3.63
